createdAt,value
2015-05-20T00:00:01.299Z,22.2
2015-05-20T00:00:19.924Z,22.2
2015-05-20T00:00:38.299Z,22.2
2015-05-20T00:00:56.707Z,22.2
2015-05-20T00:01:15.207Z,22.3
2015-05-20T00:01:33.644Z,22.3
2015-05-20T00:01:52.179Z,22.3
2015-05-20T00:02:10.804Z,22.3
2015-05-20T00:02:29.335Z,22.3
2015-05-20T00:02:48.194Z,22.4
2015-05-20T00:03:06.587Z,22.4
2015-05-20T00:03:25.040Z,22.4
2015-05-20T00:03:43.806Z,22.4
2015-05-20T00:04:02.355Z,22.4
2015-05-20T00:04:20.746Z,22.4
2015-05-20T00:04:39.199Z,22.4
2015-05-20T00:04:57.605Z,22.5
2015-05-20T00:05:15.967Z,22.5
2015-05-20T00:05:34.701Z,22.5
2015-05-20T00:05:53.217Z,22.5
2015-05-20T00:06:11.720Z,22.5
2015-05-20T00:06:30.173Z,22.5
2015-05-20T00:06:48.657Z,22.4
2015-05-20T00:07:07.298Z,22.4
2015-05-20T00:07:25.753Z,22.3
2015-05-20T00:07:44.237Z,22.3
2015-05-20T00:08:02.628Z,22.3
2015-05-20T00:08:21.240Z,22.2
2015-05-20T00:08:39.803Z,22.2
2015-05-20T00:08:58.319Z,22.2
2015-05-20T00:09:16.819Z,22.2
2015-05-20T00:09:35.196Z,22.2
2015-05-20T00:09:53.602Z,22.2
2015-05-20T00:10:12.039Z,22.2
2015-05-20T00:10:30.479Z,22.2
2015-05-20T00:10:49.104Z,22.3
2015-05-20T00:11:07.557Z,22.3
2015-05-20T00:11:25.963Z,22.3
2015-05-20T00:11:44.404Z,22.3
2015-05-20T00:12:02.810Z,22.3
2015-05-20T00:12:21.201Z,22.4
2015-05-20T00:12:39.609Z,22.4
2015-05-20T00:12:57.999Z,22.4
2015-05-20T00:13:16.484Z,22.5
2015-05-20T00:13:35.015Z,22.5
2015-05-20T00:13:53.550Z,22.5
2015-05-20T00:14:11.957Z,22.5
2015-05-20T00:14:30.378Z,22.5
2015-05-20T00:14:48.974Z,22.5
2015-05-20T00:15:07.396Z,22.6
2015-05-20T00:15:25.927Z,22.6
2015-05-20T00:15:44.412Z,22.6
2015-05-20T00:16:02.805Z,22.6
2015-05-20T00:16:21.180Z,22.6
2015-05-20T00:16:39.602Z,22.6
2015-05-20T00:16:57.979Z,22.6
2015-05-20T00:17:16.370Z,22.7
2015-05-20T00:17:34.807Z,22.7
2015-05-20T00:17:53.292Z,22.7
2015-05-20T00:18:11.810Z,22.7
2015-05-20T00:18:30.513Z,22.7
2015-05-20T00:18:49.185Z,22.7
2015-05-20T00:19:07.608Z,22.7
2015-05-20T00:19:26.061Z,22.7
2015-05-20T00:19:44.452Z,22.7
2015-05-20T00:20:02.874Z,22.8
2015-05-20T00:20:21.252Z,22.7
2015-05-20T00:20:39.674Z,22.8
2015-05-20T00:20:58.049Z,22.8
2015-05-20T00:21:16.504Z,22.8
2015-05-20T00:21:35.019Z,22.8
2015-05-20T00:21:53.379Z,22.8
2015-05-20T00:22:11.785Z,22.8
2015-05-20T00:22:30.522Z,22.8
2015-05-20T00:22:48.929Z,22.8
2015-05-20T00:23:07.585Z,22.8
2015-05-20T00:23:25.979Z,22.8
2015-05-20T00:23:44.447Z,22.8
2015-05-20T00:24:02.900Z,22.8
2015-05-20T00:24:21.354Z,22.8
2015-05-20T00:24:39.746Z,22.8
2015-05-20T00:24:58.277Z,22.8
2015-05-20T00:25:16.652Z,22.8
2015-05-20T00:25:35.390Z,22.9
2015-05-20T00:25:53.874Z,22.9
2015-05-20T00:26:12.437Z,22.9
2015-05-20T00:26:30.827Z,22.9
2015-05-20T00:26:49.298Z,22.9
2015-05-20T00:27:07.689Z,22.9
2015-05-20T00:27:26.189Z,22.9
2015-05-20T00:27:44.597Z,22.9
2015-05-20T00:28:03.034Z,22.9
2015-05-20T00:28:21.425Z,23
2015-05-20T00:28:39.909Z,23
2015-05-20T00:28:58.303Z,23
2015-05-20T00:29:16.881Z,23
2015-05-20T00:29:35.319Z,23
2015-05-20T00:29:53.727Z,23
2015-05-20T00:30:12.196Z,23
2015-05-20T00:30:30.571Z,23
2015-05-20T00:30:48.946Z,23
2015-05-20T00:31:07.636Z,23.1
2015-05-20T00:31:26.339Z,23
2015-05-20T00:31:44.730Z,23.1
2015-05-20T00:32:03.124Z,23
2015-05-20T00:32:21.624Z,23
2015-05-20T00:32:39.999Z,23
2015-05-20T00:32:58.717Z,23
2015-05-20T00:33:17.297Z,23
2015-05-20T00:33:35.891Z,23
2015-05-20T00:33:54.469Z,23
2015-05-20T00:34:12.957Z,23
2015-05-20T00:34:31.332Z,23
2015-05-20T00:34:49.800Z,23
2015-05-20T00:35:08.254Z,23
2015-05-20T00:35:26.631Z,23
2015-05-20T00:35:45.052Z,23
2015-05-20T00:36:03.490Z,23
2015-05-20T00:36:21.867Z,23
2015-05-20T00:36:40.242Z,23
2015-05-20T00:36:58.679Z,23
2015-05-20T00:37:17.179Z,23
2015-05-20T00:37:35.729Z,23
2015-05-20T00:37:54.276Z,23
2015-05-20T00:38:12.636Z,23
2015-05-20T00:38:31.092Z,23
2015-05-20T00:38:49.498Z,23
2015-05-20T00:39:08.060Z,23
2015-05-20T00:39:26.545Z,23
2015-05-20T00:39:45.000Z,23
2015-05-20T00:40:03.469Z,23
2015-05-20T00:40:21.844Z,23
2015-05-20T00:40:40.408Z,23
2015-05-20T00:40:58.830Z,23
2015-05-20T00:41:17.408Z,23
2015-05-20T00:41:35.986Z,23
2015-05-20T00:41:54.458Z,23
2015-05-20T00:42:13.161Z,23
2015-05-20T00:42:31.536Z,23
2015-05-20T00:42:50.149Z,23
2015-05-20T00:43:08.742Z,23
2015-05-20T00:43:27.367Z,23
2015-05-20T00:43:45.758Z,23
2015-05-20T00:44:05.697Z,23
2015-05-20T00:44:24.072Z,23
2015-05-20T00:44:42.666Z,23.1
2015-05-20T00:45:01.232Z,23
2015-05-20T00:45:19.919Z,23.1
2015-05-20T00:45:38.294Z,23.1
2015-05-20T00:45:56.747Z,23.1
2015-05-20T00:46:15.421Z,23.1
2015-05-20T00:46:33.921Z,23.1
2015-05-20T00:46:52.515Z,23.1
2015-05-20T00:47:10.923Z,23.1
2015-05-20T00:47:29.314Z,23.1
2015-05-20T00:47:47.767Z,23.1
2015-05-20T00:48:06.158Z,23.1
2015-05-20T00:48:24.661Z,23.1
2015-05-20T00:48:43.317Z,23.1
2015-05-20T00:49:01.895Z,23.1
2015-05-20T00:49:20.381Z,23.1
2015-05-20T00:49:38.756Z,23.1
2015-05-20T00:49:57.366Z,23.1
2015-05-20T00:50:15.866Z,23.1
2015-05-20T00:50:34.244Z,23.1
2015-05-20T00:50:52.681Z,23.1
2015-05-20T00:51:11.197Z,23.1
2015-05-20T00:51:29.747Z,23.1
2015-05-20T00:51:48.387Z,23.1
2015-05-20T00:52:06.762Z,23.1
2015-05-20T00:52:25.137Z,23.1
2015-05-20T00:52:43.623Z,23.1
2015-05-20T00:53:02.013Z,23.1
2015-05-20T00:53:20.404Z,23.1
2015-05-20T00:53:38.860Z,23.1
2015-05-20T00:53:57.266Z,23.1
2015-05-20T00:54:15.735Z,23.2
2015-05-20T00:54:34.126Z,23.2
2015-05-20T00:54:52.597Z,23.2
2015-05-20T00:55:11.066Z,23.2
2015-05-20T00:55:29.629Z,23.2
2015-05-20T00:55:48.287Z,23.2
2015-05-20T00:56:06.053Z,23.2
2015-05-20T00:56:24.428Z,23.2
2015-05-20T00:56:42.818Z,23.1
2015-05-20T00:57:01.274Z,23.1
2015-05-20T00:57:19.837Z,23.1
2015-05-20T00:57:38.212Z,23.1
2015-05-20T00:57:56.683Z,23.1
2015-05-20T00:58:15.073Z,23.1
2015-05-20T00:58:33.823Z,23.1
2015-05-20T00:58:52.261Z,23.1
2015-05-20T00:59:10.638Z,23.1
2015-05-20T00:59:29.216Z,23.1
2015-05-20T00:59:47.606Z,23.1
2015-05-20T01:00:06.219Z,23.1
2015-05-20T01:00:24.906Z,23.1
2015-05-20T01:00:43.406Z,23
2015-05-20T01:01:01.859Z,23
2015-05-20T01:01:20.316Z,23
2015-05-20T01:01:38.722Z,23
2015-05-20T01:01:57.112Z,23
2015-05-20T01:02:15.552Z,23
2015-05-20T01:02:33.974Z,23
2015-05-20T01:02:52.349Z,23
2015-05-20T01:03:10.943Z,23
2015-05-20T01:03:29.461Z,23
2015-05-20T01:03:47.758Z,23
2015-05-20T01:04:06.164Z,23.1
2015-05-20T01:04:24.526Z,23
2015-05-20T01:04:42.916Z,23.1
2015-05-20T01:05:01.557Z,23.1
2015-05-20T01:05:19.979Z,23.1
2015-05-20T01:05:38.543Z,23.1
2015-05-20T01:05:56.934Z,23.1
2015-05-20T01:06:15.325Z,23.1
2015-05-20T01:06:33.749Z,23
2015-05-20T01:06:52.124Z,23
2015-05-20T01:07:10.499Z,23
2015-05-20T01:07:29.109Z,23
2015-05-20T01:07:47.487Z,23
2015-05-20T01:08:05.862Z,23
2015-05-20T01:08:24.362Z,23
2015-05-20T01:08:42.739Z,23
2015-05-20T01:09:01.145Z,23
2015-05-20T01:09:19.629Z,23
2015-05-20T01:09:38.192Z,23
2015-05-20T01:09:56.819Z,23
2015-05-20T01:10:15.194Z,23
2015-05-20T01:10:33.616Z,23
2015-05-20T01:10:52.259Z,23
2015-05-20T01:11:10.884Z,23
2015-05-20T01:11:29.259Z,23
2015-05-20T01:11:47.634Z,23
2015-05-20T01:12:06.168Z,23
2015-05-20T01:12:24.621Z,22.9
2015-05-20T01:12:43.261Z,22.9
2015-05-20T01:13:01.686Z,22.9
2015-05-20T01:13:20.171Z,22.9
2015-05-20T01:13:38.639Z,22.9
2015-05-20T01:13:57.139Z,22.9
2015-05-20T01:14:15.548Z,22.9
2015-05-20T01:14:34.032Z,22.9
2015-05-20T01:14:52.501Z,22.9
2015-05-20T01:15:10.926Z,22.9
2015-05-20T01:15:29.426Z,22.9
2015-05-20T01:15:47.957Z,22.9
2015-05-20T01:16:06.332Z,22.9
2015-05-20T01:16:24.865Z,22.9
2015-05-20T01:16:43.240Z,22.9
2015-05-20T01:17:01.834Z,22.9
2015-05-20T01:17:20.306Z,22.9
2015-05-20T01:17:38.728Z,22.9
2015-05-20T01:17:57.149Z,22.9
2015-05-20T01:18:15.728Z,22.9
2015-05-20T01:18:34.105Z,22.9
2015-05-20T01:18:52.745Z,22.9
2015-05-20T01:19:11.183Z,22.9
2015-05-20T01:19:29.717Z,22.9
2015-05-20T01:19:48.233Z,22.9
2015-05-20T01:20:06.858Z,22.9
2015-05-20T01:20:25.483Z,22.8
2015-05-20T01:20:44.063Z,22.8
2015-05-20T01:21:02.469Z,22.8
2015-05-20T01:21:20.875Z,22.8
2015-05-20T01:21:39.518Z,22.9
2015-05-20T01:21:58.080Z,22.9
2015-05-20T01:22:16.612Z,22.9
2015-05-20T01:22:35.002Z,22.9
2015-05-20T01:22:53.615Z,22.9
2015-05-20T01:23:12.005Z,22.9
2015-05-20T01:23:30.490Z,22.9
2015-05-20T01:23:48.898Z,22.8
2015-05-20T01:24:07.382Z,22.8
2015-05-20T01:24:25.820Z,22.8
2015-05-20T01:24:44.320Z,22.8
2015-05-20T01:25:02.916Z,22.8
2015-05-20T01:25:21.526Z,22.8
2015-05-20T01:25:40.041Z,22.8
2015-05-20T01:25:58.513Z,22.9
2015-05-20T01:26:16.888Z,22.9
2015-05-20T01:26:35.341Z,22.9
2015-05-20T01:26:54.044Z,22.9
2015-05-20T01:27:12.501Z,22.9
2015-05-20T01:27:30.907Z,22.9
2015-05-20T01:27:49.313Z,22.9
2015-05-20T01:28:07.924Z,22.9
2015-05-20T01:28:26.503Z,22.9
2015-05-20T01:28:44.878Z,22.9
2015-05-20T01:29:03.456Z,22.9
2015-05-20T01:29:22.301Z,22.9
2015-05-20T01:29:40.036Z,22.9
2015-05-20T01:29:58.723Z,22.9
2015-05-20T01:30:17.366Z,22.9
2015-05-20T01:30:35.741Z,22.9
2015-05-20T01:30:54.272Z,22.9
2015-05-20T01:31:12.678Z,22.9
2015-05-20T01:31:31.431Z,22.9
2015-05-20T01:31:50.025Z,22.9
2015-05-20T01:32:08.463Z,22.9
2015-05-20T01:32:27.044Z,22.9
2015-05-20T01:32:45.591Z,22.8
2015-05-20T01:33:03.997Z,22.9
2015-05-20T01:33:22.450Z,22.8
2015-05-20T01:33:41.124Z,22.8
2015-05-20T01:33:59.655Z,22.8
2015-05-20T01:34:18.280Z,22.8
2015-05-20T01:34:36.908Z,22.8
2015-05-20T01:34:55.361Z,22.8
2015-05-20T01:35:13.939Z,22.8
2015-05-20T01:35:32.455Z,22.8
2015-05-20T01:35:51.113Z,22.8
2015-05-20T01:36:09.551Z,22.8
2015-05-20T01:36:28.145Z,22.8
2015-05-20T01:36:46.709Z,22.8
2015-05-20T01:37:05.303Z,22.8
2015-05-20T01:37:23.756Z,22.8
2015-05-20T01:37:42.147Z,22.8
2015-05-20T01:38:00.884Z,22.8
2015-05-20T01:38:19.603Z,22.8
2015-05-20T01:38:38.056Z,22.8
2015-05-20T01:38:56.636Z,22.8
2015-05-20T01:39:15.323Z,22.9
2015-05-20T01:39:33.714Z,22.9
2015-05-20T01:39:52.136Z,22.8
2015-05-20T01:40:10.764Z,22.9
2015-05-20T01:40:29.358Z,22.9
2015-05-20T01:40:47.811Z,22.9
2015-05-20T01:41:06.250Z,22.8
2015-05-20T01:41:24.750Z,22.9
2015-05-20T01:41:43.219Z,22.9
2015-05-20T01:42:01.641Z,22.9
2015-05-20T01:42:20.238Z,22.9
2015-05-20T01:42:38.660Z,22.9
2015-05-20T01:42:57.128Z,22.9
2015-05-20T01:43:15.663Z,22.9
2015-05-20T01:43:34.100Z,22.9
2015-05-20T01:43:52.819Z,22.9
2015-05-20T01:44:11.272Z,22.9
2015-05-20T01:44:29.758Z,22.9
2015-05-20T01:44:48.305Z,22.9
2015-05-20T01:45:06.758Z,22.9
2015-05-20T01:45:25.496Z,22.9
2015-05-20T01:45:44.293Z,22.9
2015-05-20T01:46:03.089Z,22.9
2015-05-20T01:46:21.496Z,22.9
2015-05-20T01:46:39.920Z,22.9
2015-05-20T01:46:58.373Z,22.9
2015-05-20T01:47:16.841Z,22.9
2015-05-20T01:47:35.297Z,23
2015-05-20T01:47:53.703Z,23
2015-05-20T01:48:12.265Z,23
2015-05-20T01:48:30.765Z,23
2015-05-20T01:48:49.596Z,22.9
2015-05-20T01:49:08.018Z,22.9
2015-05-20T01:49:26.784Z,22.9
2015-05-20T01:49:45.381Z,22.9
2015-05-20T01:50:03.803Z,22.9
2015-05-20T01:50:22.271Z,22.9
2015-05-20T01:50:40.646Z,22.9
2015-05-20T01:50:59.351Z,22.9
2015-05-20T01:51:17.836Z,22.9
2015-05-20T01:51:36.508Z,22.8
2015-05-20T01:51:55.183Z,22.8
2015-05-20T01:52:13.714Z,22.8
2015-05-20T01:52:32.261Z,22.8
2015-05-20T01:52:50.933Z,22.8
2015-05-20T01:53:09.496Z,22.8
2015-05-20T01:53:27.871Z,22.8
2015-05-20T01:53:46.465Z,22.8
2015-05-20T01:54:05.016Z,22.8
2015-05-20T01:54:23.469Z,22.8
2015-05-20T01:54:41.844Z,22.8
2015-05-20T01:55:00.422Z,22.8
2015-05-20T01:55:18.893Z,22.8
2015-05-20T01:55:37.549Z,22.8
2015-05-20T01:55:56.096Z,22.8
2015-05-20T01:56:14.599Z,22.8
2015-05-20T01:56:33.364Z,22.8
2015-05-20T01:56:51.864Z,22.8
2015-05-20T01:57:10.380Z,22.8
2015-05-20T01:57:28.804Z,22.8
2015-05-20T01:57:47.491Z,22.7
2015-05-20T01:58:05.898Z,22.7
2015-05-20T01:58:24.448Z,22.7
2015-05-20T01:58:42.948Z,22.7
2015-05-20T01:59:01.338Z,22.7
2015-05-20T01:59:19.869Z,22.7
2015-05-20T01:59:38.481Z,22.7
2015-05-20T01:59:56.981Z,22.7
2015-05-20T02:00:15.590Z,22.7
2015-05-20T02:00:34.108Z,22.7
2015-05-20T02:00:52.514Z,22.7
2015-05-20T02:01:10.952Z,22.7
2015-05-20T02:01:29.467Z,22.7
2015-05-20T02:01:48.189Z,22.7
2015-05-20T02:02:06.845Z,22.8
2015-05-20T02:02:25.345Z,22.8
2015-05-20T02:02:43.769Z,22.8
2015-05-20T02:03:02.503Z,22.8
2015-05-20T02:03:21.113Z,22.8
2015-05-20T02:03:39.722Z,22.8
2015-05-20T02:03:58.100Z,22.8
2015-05-20T02:04:16.616Z,22.8
2015-05-20T02:04:35.085Z,22.8
2015-05-20T02:04:53.541Z,22.8
2015-05-20T02:05:12.400Z,22.8
2015-05-20T02:05:31.072Z,22.8
2015-05-20T02:05:49.916Z,22.8
2015-05-20T02:06:08.574Z,22.8
2015-05-20T02:06:27.011Z,22.8
2015-05-20T02:06:45.449Z,22.8
2015-05-20T02:07:03.936Z,22.8
2015-05-20T02:07:22.327Z,22.8
2015-05-20T02:07:40.733Z,22.8
2015-05-20T02:07:59.202Z,22.8
2015-05-20T02:08:17.657Z,22.8
2015-05-20T02:08:36.079Z,22.8
2015-05-20T02:08:54.673Z,22.8
2015-05-20T02:09:13.112Z,22.8
2015-05-20T02:09:31.550Z,22.8
2015-05-20T02:09:50.097Z,22.8
2015-05-20T02:10:08.565Z,22.8
2015-05-20T02:10:26.506Z,22.8
2015-05-20T02:10:44.959Z,22.8
2015-05-20T02:11:03.381Z,22.7
2015-05-20T02:11:21.774Z,22.7
2015-05-20T02:11:40.399Z,22.7
2015-05-20T02:11:59.212Z,22.7
2015-05-20T02:12:17.634Z,22.7
2015-05-20T02:12:36.214Z,22.7
2015-05-20T02:12:54.651Z,22.6
2015-05-20T02:13:13.105Z,22.6
2015-05-20T02:13:31.575Z,22.6
2015-05-20T02:13:50.075Z,22.6
2015-05-20T02:14:08.669Z,22.6
2015-05-20T02:14:27.185Z,22.6
2015-05-20T02:14:45.624Z,22.6
2015-05-20T02:15:04.062Z,22.6
2015-05-20T02:15:22.609Z,22.6
2015-05-20T02:15:41.408Z,22.6
2015-05-20T02:15:59.783Z,22.6
2015-05-20T02:16:18.393Z,22.6
2015-05-20T02:16:37.033Z,22.6
2015-05-20T02:16:55.598Z,22.6
2015-05-20T02:17:14.207Z,22.6
2015-05-20T02:17:32.754Z,22.6
2015-05-20T02:17:51.476Z,22.6
2015-05-20T02:18:09.913Z,22.6
2015-05-20T02:18:28.335Z,22.6
2015-05-20T02:18:46.710Z,22.6
2015-05-20T02:19:05.088Z,22.6
2015-05-20T02:19:23.510Z,22.6
2015-05-20T02:19:41.948Z,22.6
2015-05-20T02:20:00.326Z,22.6
2015-05-20T02:20:18.763Z,22.6
2015-05-20T02:20:37.357Z,22.7
2015-05-20T02:20:55.732Z,22.7
2015-05-20T02:21:14.171Z,22.7
2015-05-20T02:21:32.640Z,22.7
2015-05-20T02:21:51.343Z,22.7
2015-05-20T02:22:10.017Z,22.7
2015-05-20T02:22:28.408Z,22.7
2015-05-20T02:22:46.830Z,22.7
2015-05-20T02:23:05.392Z,22.7
2015-05-20T02:23:23.786Z,22.7
2015-05-20T02:23:42.239Z,22.7
2015-05-20T02:24:00.676Z,22.7
2015-05-20T02:24:19.116Z,22.7
2015-05-20T02:24:37.507Z,22.7
2015-05-20T02:24:56.085Z,22.7
2015-05-20T02:25:14.460Z,22.7
2015-05-20T02:25:32.837Z,22.7
2015-05-20T02:25:51.352Z,22.7
2015-05-20T02:26:09.759Z,22.7
2015-05-20T02:26:28.168Z,22.7
2015-05-20T02:26:46.793Z,22.7
2015-05-20T02:27:05.230Z,22.7
2015-05-20T02:27:23.621Z,22.7
2015-05-20T02:27:42.030Z,22.7
2015-05-20T02:28:00.436Z,22.7
2015-05-20T02:28:18.890Z,22.7
2015-05-20T02:28:37.455Z,22.7
2015-05-20T02:28:55.908Z,22.7
2015-05-20T02:29:14.283Z,22.7
2015-05-20T02:29:32.689Z,22.7
2015-05-20T02:29:51.129Z,22.6
2015-05-20T02:30:09.535Z,22.6
2015-05-20T02:30:28.254Z,22.6
2015-05-20T02:30:46.631Z,22.6
2015-05-20T02:31:05.053Z,22.6
2015-05-20T02:31:23.459Z,22.6
2015-05-20T02:31:42.178Z,22.6
2015-05-20T02:32:00.555Z,22.6
2015-05-20T02:32:19.070Z,22.6
2015-05-20T02:32:37.508Z,22.6
2015-05-20T02:32:55.917Z,22.6
2015-05-20T02:33:14.339Z,22.6
2015-05-20T02:33:33.011Z,22.6
2015-05-20T02:33:51.464Z,22.6
2015-05-20T02:34:10.061Z,22.6
2015-05-20T02:34:28.467Z,22.6
2015-05-20T02:34:46.858Z,22.6
2015-05-20T02:35:05.485Z,22.6
2015-05-20T02:35:24.110Z,22.6
2015-05-20T02:35:42.641Z,22.6
2015-05-20T02:36:01.063Z,22.6
2015-05-20T02:36:19.769Z,22.6
2015-05-20T02:36:38.206Z,22.6
2015-05-20T02:36:56.831Z,22.6
2015-05-20T02:37:15.287Z,22.6
2015-05-20T02:37:33.771Z,22.6
2015-05-20T02:37:52.474Z,22.6
2015-05-20T02:38:11.099Z,22.6
2015-05-20T02:38:29.507Z,22.6
2015-05-20T02:38:48.023Z,22.6
2015-05-20T02:39:06.398Z,22.6
2015-05-20T02:39:24.776Z,22.6
2015-05-20T02:39:43.542Z,22.6
2015-05-20T02:40:02.010Z,22.6
2015-05-20T02:40:20.620Z,22.6
2015-05-20T02:40:39.107Z,22.6
2015-05-20T02:40:57.748Z,22.6
2015-05-20T02:41:16.138Z,22.6
2015-05-20T02:41:34.781Z,22.6
2015-05-20T02:41:53.234Z,22.6
2015-05-20T02:42:11.750Z,22.6
2015-05-20T02:42:30.156Z,22.6
2015-05-20T02:42:48.564Z,22.6
2015-05-20T02:43:06.955Z,22.6
2015-05-20T02:43:25.439Z,22.6
2015-05-20T02:43:43.973Z,22.6
2015-05-20T02:44:02.458Z,22.6
2015-05-20T02:44:20.958Z,22.6
2015-05-20T02:44:39.380Z,22.6
2015-05-20T02:44:57.897Z,22.6
2015-05-20T02:45:16.382Z,22.6
2015-05-20T02:45:34.757Z,22.6
2015-05-20T02:45:53.166Z,22.6
2015-05-20T02:46:11.697Z,22.6
2015-05-20T02:46:30.400Z,22.6
2015-05-20T02:46:48.775Z,22.6
2015-05-20T02:47:07.402Z,22.6
2015-05-20T02:47:25.918Z,22.6
2015-05-20T02:47:44.402Z,22.6
2015-05-20T02:48:02.858Z,22.6
2015-05-20T02:48:21.312Z,22.6
2015-05-20T02:48:39.874Z,22.6
2015-05-20T02:48:58.249Z,22.6
2015-05-20T02:49:16.626Z,22.6
2015-05-20T02:49:34.939Z,22.6
2015-05-20T02:49:53.517Z,22.6
2015-05-20T02:50:11.895Z,22.6
2015-05-20T02:50:30.270Z,22.6
2015-05-20T02:50:48.895Z,22.6
2015-05-20T02:51:07.348Z,22.6
2015-05-20T02:51:25.803Z,22.6
2015-05-20T02:51:44.350Z,22.6
2015-05-20T02:52:02.975Z,22.6
2015-05-20T02:52:21.540Z,22.6
2015-05-20T02:52:39.993Z,22.6
2015-05-20T02:52:58.368Z,22.6
2015-05-20T02:53:16.759Z,22.6
2015-05-20T02:53:35.355Z,22.6
2015-05-20T02:53:54.074Z,22.6
2015-05-20T02:54:12.636Z,22.6
2015-05-20T02:54:31.155Z,22.6
2015-05-20T02:54:49.561Z,22.5
2015-05-20T02:55:07.952Z,22.5
2015-05-20T02:55:26.483Z,22.5
2015-05-20T02:55:44.860Z,22.5
2015-05-20T02:56:03.250Z,22.5
2015-05-20T02:56:21.657Z,22.5
2015-05-20T02:56:40.222Z,22.5
2015-05-20T02:56:58.675Z,22.5
2015-05-20T02:57:17.050Z,22.5
2015-05-20T02:57:35.441Z,22.5
2015-05-20T02:57:53.818Z,22.5
2015-05-20T02:58:12.224Z,22.5
2015-05-20T02:58:30.709Z,22.5
2015-05-20T02:58:49.461Z,22.5
2015-05-20T02:59:07.929Z,22.5
2015-05-20T02:59:26.695Z,22.5
2015-05-20T02:59:45.148Z,22.5
2015-05-20T03:00:03.526Z,22.5
2015-05-20T03:00:22.120Z,22.5
2015-05-20T03:00:40.698Z,22.5
2015-05-20T03:00:59.248Z,22.5
2015-05-20T03:01:17.685Z,22.6
2015-05-20T03:01:36.060Z,22.6
2015-05-20T03:01:54.576Z,22.6
2015-05-20T03:02:13.078Z,22.6
2015-05-20T03:02:31.640Z,22.6
2015-05-20T03:02:50.031Z,22.6
2015-05-20T03:03:08.408Z,22.6
2015-05-20T03:03:26.814Z,22.6
2015-05-20T03:03:45.205Z,22.6
2015-05-20T03:04:03.611Z,22.6
2015-05-20T03:04:21.989Z,22.6
2015-05-20T03:04:40.614Z,22.6
2015-05-20T03:04:59.067Z,22.6
2015-05-20T03:05:17.570Z,22.6
2015-05-20T03:05:36.055Z,22.6
2015-05-20T03:05:54.555Z,22.6
2015-05-20T03:06:12.930Z,22.6
2015-05-20T03:06:31.432Z,22.6
2015-05-20T03:06:49.807Z,22.6
2015-05-20T03:07:07.619Z,22.6
2015-05-20T03:07:26.060Z,22.6
2015-05-20T03:07:44.528Z,22.6
2015-05-20T03:08:03.138Z,22.6
2015-05-20T03:08:21.716Z,22.6
2015-05-20T03:08:40.124Z,22.6
2015-05-20T03:08:58.874Z,22.6
2015-05-20T03:09:17.499Z,22.5
2015-05-20T03:09:35.954Z,22.5
2015-05-20T03:09:54.329Z,22.5
2015-05-20T03:10:12.767Z,22.5
2015-05-20T03:10:31.298Z,22.5
2015-05-20T03:10:49.723Z,22.5
2015-05-20T03:11:08.160Z,22.5
2015-05-20T03:11:26.567Z,22.5
2015-05-20T03:11:44.975Z,22.5
2015-05-20T03:12:03.350Z,22.5
2015-05-20T03:12:21.725Z,22.5
2015-05-20T03:12:40.100Z,22.5
2015-05-20T03:12:58.572Z,22.5
2015-05-20T03:13:17.103Z,22.5
2015-05-20T03:13:35.603Z,22.5
2015-05-20T03:13:54.183Z,22.5
2015-05-20T03:14:12.917Z,22.5
2015-05-20T03:14:31.292Z,22.5
2015-05-20T03:14:49.667Z,22.5
2015-05-20T03:15:08.108Z,22.4
2015-05-20T03:15:26.717Z,22.4
2015-05-20T03:15:45.139Z,22.4
2015-05-20T03:16:03.516Z,22.4
2015-05-20T03:16:21.907Z,22.4
2015-05-20T03:16:40.297Z,22.4
2015-05-20T03:16:58.782Z,22.3
2015-05-20T03:17:17.191Z,22.3
2015-05-20T03:17:35.644Z,22.3
2015-05-20T03:17:54.066Z,22.3
2015-05-20T03:18:12.507Z,22.3
2015-05-20T03:18:31.241Z,22.3
2015-05-20T03:18:49.866Z,22.3
2015-05-20T03:19:08.335Z,22.3
2015-05-20T03:19:26.774Z,22.3
2015-05-20T03:19:45.149Z,22.4
2015-05-20T03:20:03.712Z,22.4
2015-05-20T03:20:22.089Z,22.4
2015-05-20T03:20:40.589Z,22.4
2015-05-20T03:20:58.964Z,22.4
2015-05-20T03:21:17.589Z,22.4
2015-05-20T03:21:35.982Z,22.4
2015-05-20T03:21:54.404Z,22.4
2015-05-20T03:22:12.873Z,22.4
2015-05-20T03:22:31.281Z,22.4
2015-05-20T03:22:49.656Z,22.4
2015-05-20T03:23:08.031Z,22.4
2015-05-20T03:23:26.641Z,22.4
2015-05-20T03:23:45.018Z,22.4
2015-05-20T03:24:03.705Z,22.4
2015-05-20T03:24:22.143Z,22.4
2015-05-20T03:24:40.708Z,22.4
2015-05-20T03:24:59.099Z,22.4
2015-05-20T03:25:17.661Z,22.3
2015-05-20T03:25:36.239Z,22.3
2015-05-20T03:25:54.617Z,22.4
2015-05-20T03:26:13.352Z,22.4
2015-05-20T03:26:31.883Z,22.3
2015-05-20T03:26:50.277Z,22.4
2015-05-20T03:27:08.714Z,22.4
2015-05-20T03:27:27.433Z,22.4
2015-05-20T03:27:45.917Z,22.4
2015-05-20T03:28:04.310Z,22.3
2015-05-20T03:28:22.763Z,22.3
2015-05-20T03:28:41.357Z,22.4
2015-05-20T03:28:59.765Z,22.3
2015-05-20T03:29:18.421Z,22.3
2015-05-20T03:29:36.796Z,22.3
2015-05-20T03:29:55.187Z,22.3
2015-05-20T03:30:13.564Z,22.3
2015-05-20T03:30:32.079Z,22.3
2015-05-20T03:30:50.704Z,22.3
2015-05-20T03:31:09.098Z,22.3
2015-05-20T03:31:27.489Z,22.3
2015-05-20T03:31:45.973Z,22.4
2015-05-20T03:32:04.411Z,22.3
2015-05-20T03:32:23.006Z,22.4
2015-05-20T03:32:41.506Z,22.4
2015-05-20T03:33:00.194Z,22.4
2015-05-20T03:33:18.634Z,22.4
2015-05-20T03:33:37.087Z,22.4
2015-05-20T03:33:55.744Z,22.4
2015-05-20T03:34:14.322Z,22.4
2015-05-20T03:34:33.058Z,22.4
2015-05-20T03:34:51.480Z,22.4
2015-05-20T03:35:09.871Z,22.4
2015-05-20T03:35:28.467Z,22.4
2015-05-20T03:35:47.108Z,22.4
2015-05-20T03:36:05.592Z,22.4
2015-05-20T03:36:23.983Z,22.4
2015-05-20T03:36:42.438Z,22.4
2015-05-20T03:37:01.016Z,22.4
2015-05-20T03:37:19.485Z,22.4
2015-05-20T03:37:37.988Z,22.4
2015-05-20T03:37:56.707Z,22.4
2015-05-20T03:38:15.238Z,22.4
2015-05-20T03:38:33.613Z,22.4
2015-05-20T03:38:52.147Z,22.4
2015-05-20T03:39:10.647Z,22.4
2015-05-20T03:39:29.132Z,22.4
2015-05-20T03:39:47.727Z,22.4
2015-05-20T03:40:06.368Z,22.4
2015-05-20T03:40:24.165Z,22.4
2015-05-20T03:40:42.415Z,22.4
2015-05-20T03:41:00.918Z,22.4
2015-05-20T03:41:19.496Z,22.4
2015-05-20T03:41:38.012Z,22.4
2015-05-20T03:41:56.561Z,22.4
2015-05-20T03:42:15.014Z,22.4
2015-05-20T03:42:33.732Z,22.4
2015-05-20T03:42:52.295Z,22.4
2015-05-20T03:43:10.781Z,22.4
2015-05-20T03:43:29.156Z,22.4
2015-05-20T03:43:47.594Z,22.4
2015-05-20T03:44:06.003Z,22.4
2015-05-20T03:44:24.691Z,22.4
2015-05-20T03:44:43.284Z,22.4
2015-05-20T03:45:01.737Z,22.4
2015-05-20T03:45:20.239Z,22.4
2015-05-20T03:45:38.896Z,22.4
2015-05-20T03:45:57.333Z,22.4
2015-05-20T03:46:15.711Z,22.4
2015-05-20T03:46:34.305Z,22.4
2015-05-20T03:46:52.680Z,22.4
2015-05-20T03:47:11.055Z,22.4
2015-05-20T03:47:29.682Z,22.4
2015-05-20T03:47:48.182Z,22.4
2015-05-20T03:48:06.666Z,22.4
2015-05-20T03:48:25.154Z,22.4
2015-05-20T03:48:43.544Z,22.4
2015-05-20T03:49:02.060Z,22.4
2015-05-20T03:49:20.435Z,22.4
2015-05-20T03:49:38.828Z,22.4
2015-05-20T03:49:57.671Z,22.4
2015-05-20T03:50:16.203Z,22.4
2015-05-20T03:50:34.611Z,22.4
2015-05-20T03:50:53.080Z,22.4
2015-05-20T03:51:11.455Z,22.3
2015-05-20T03:51:29.892Z,22.3
2015-05-20T03:51:48.302Z,22.3
2015-05-20T03:52:06.834Z,22.3
2015-05-20T03:52:25.443Z,22.3
2015-05-20T03:52:44.086Z,22.3
2015-05-20T03:53:02.539Z,22.3
2015-05-20T03:53:21.023Z,22.3
2015-05-20T03:53:39.445Z,22.2
2015-05-20T03:53:57.963Z,22.2
2015-05-20T03:54:16.463Z,22.2
2015-05-20T03:54:35.134Z,22.1
2015-05-20T03:54:53.637Z,22
2015-05-20T03:55:12.184Z,21.9
2015-05-20T03:55:30.731Z,21.9
2015-05-20T03:55:49.481Z,21.8
2015-05-20T03:56:08.061Z,21.7
2015-05-20T03:56:26.483Z,21.7
2015-05-20T03:56:44.858Z,21.7
2015-05-20T03:57:03.361Z,21.6
2015-05-20T03:57:21.971Z,21.6
2015-05-20T03:57:40.611Z,21.6
2015-05-20T03:57:59.205Z,21.6
2015-05-20T03:58:17.582Z,21.5
2015-05-20T03:58:36.004Z,21.6
2015-05-20T03:58:54.410Z,21.5
2015-05-20T03:59:12.819Z,21.5
2015-05-20T03:59:31.194Z,21.5
2015-05-20T03:59:49.632Z,21.5
2015-05-20T04:00:08.022Z,21.5
2015-05-20T04:00:26.571Z,21.5
2015-05-20T04:00:45.196Z,21.5
2015-05-20T04:01:03.978Z,21.5
2015-05-20T04:01:22.637Z,21.5
2015-05-20T04:01:41.012Z,21.5
2015-05-20T04:01:59.434Z,21.5
2015-05-20T04:02:17.824Z,21.5
2015-05-20T04:02:36.202Z,21.5
2015-05-20T04:02:54.812Z,21.5
2015-05-20T04:03:13.312Z,21.4
2015-05-20T04:03:31.766Z,21.4
2015-05-20T04:03:50.297Z,21.4
2015-05-20T04:04:08.672Z,21.3
2015-05-20T04:04:27.125Z,21.2
2015-05-20T04:04:45.659Z,21.2
2015-05-20T04:05:04.378Z,21.1
2015-05-20T04:05:22.972Z,21.1
2015-05-20T04:05:41.444Z,21.1
2015-05-20T04:05:59.834Z,21
2015-05-20T04:06:17.616Z,21
2015-05-20T04:06:36.006Z,21
2015-05-20T04:06:54.383Z,21
2015-05-20T04:07:12.758Z,21
2015-05-20T04:07:31.180Z,21
2015-05-20T04:07:49.746Z,21